Time;durP1;ratioP1;P1;durP2;ratioP2;P2;SDS_P1;SDS_P2;PMS_P1;PMS_P2;Temp;Humidity;BMP_temperature;BMP_pressure;BME280_temperature;BME280_humidity;BME280_pressure;Samples;Min_cycle;Max_cycle;Signal;HPM_P1;HPM_P2
2023/10/08 00:02:22;;;;;;;4.85;2.40;;;14.50;99.90;;;;;;8315545;28;20030;-81
2023/10/08 00:06:22;;;;;;;5.60;2.88;;;14.20;99.90;;;;;;8351908;28;20032;-81
2023/10/08 00:10:26;;;;;;;4.70;3.10;;;14.30;99.90;;;;;;8332731;28;20092;-81
2023/10/08 00:14:28;;;;;;;4.85;2.78;;;14.10;99.90;;;;;;8323266;28;20317;-81
2023/10/08 00:18:28;;;;;;;5.63;3.00;;;14.30;99.90;;;;;;8313631;28;20029;-81
2023/10/08 00:22:35;;;;;;;5.93;3.25;;;14.30;99.90;;;;;;8318491;28;20560;-81
2023/10/08 00:26:40;;;;;;;6.78;3.20;;;14.50;99.90;;;;;;8324550;28;20041;-80
2023/10/08 00:30:44;;;;;;;6.32;3.17;;;14.70;99.90;;;;;;8337404;28;20147;-82
2023/10/08 00:34:46;;;;;;;5.30;2.83;;;14.80;99.90;;;;;;8332989;28;20397;-81
2023/10/08 00:38:52;;;;;;;4.78;2.70;;;14.60;99.90;;;;;;8322967;28;20138;-81
2023/10/08 00:42:56;;;;;;;6.28;3.13;;;14.60;99.90;;;;;;8314192;28;20037;-81
2023/10/08 00:47:00;;;;;;;4.30;2.97;;;14.40;99.90;;;;;;8327929;28;20025;-81
2023/10/08 00:55:28;;;;;;;6.50;3.33;;;14.10;99.90;;;;;;8339335;28;20068;-80
2023/10/08 00:59:33;;;;;;;5.53;2.75;;;14.20;99.90;;;;;;8321741;28;20037;-80
2023/10/08 01:03:35;;;;;;;4.40;2.55;;;14.40;99.90;;;;;;8327358;28;20037;-80
2023/10/08 01:07:36;;;;;;;6.85;3.08;;;14.40;99.90;;;;;;8324198;28;20069;-80
2023/10/08 01:11:46;;;;;;;7.35;3.22;;;14.30;99.90;;;;;;8317808;28;20048;-81
2023/10/08 01:15:50;;;;;;;5.07;3.03;;;14.40;99.90;;;;;;8328666;28;20028;-81
2023/10/08 01:19:54;;;;;;;4.70;3.05;;;14.60;99.90;;;;;;8335677;28;20124;-80
2023/10/08 01:23:55;;;;;;;6.75;3.40;;;14.40;99.90;;;;;;8357807;28;20106;-80
2023/10/08 01:28:00;;;;;;;8.55;3.00;;;14.30;99.90;;;;;;8349236;28;20030;-81
2023/10/08 01:32:02;;;;;;;4.55;2.80;;;14.40;99.90;;;;;;8334105;28;20021;-81
2023/10/08 01:36:04;;;;;;;6.65;3.05;;;14.60;99.90;;;;;;8333051;28;20030;-81
2023/10/08 01:40:06;;;;;;;7.72;3.05;;;14.50;99.90;;;;;;8319444;28;20064;-80
2023/10/08 01:44:08;;;;;;;5.03;2.88;;;14.70;99.90;;;;;;8318549;28;20481;-80
2023/10/08 01:48:12;;;;;;;4.65;2.78;;;14.60;99.90;;;;;;8354395;28;20529;-82
2023/10/08 01:52:22;;;;;;;5.50;2.67;;;14.80;99.90;;;;;;8319795;28;20025;-80
2023/10/08 01:56:23;;;;;;;6.47;3.20;;;15.00;99.90;;;;;;8353838;28;20017;-81
2023/10/08 02:00:26;;;;;;;6.18;3.30;;;15.20;99.90;;;;;;8344429;28;20029;-82
2023/10/08 02:04:26;;;;;;;5.03;2.92;;;15.10;99.90;;;;;;8329334;28;20045;-82
2023/10/08 02:08:27;;;;;;;5.65;3.00;;;15.20;99.90;;;;;;8355924;28;20033;-82
2023/10/08 02:12:27;;;;;;;4.90;2.50;;;15.00;99.90;;;;;;8336050;28;20029;-82
2023/10/08 02:16:28;;;;;;;5.07;2.60;;;15.00;99.90;;;;;;8353629;28;20029;-83
2023/10/08 02:20:29;;;;;;;5.43;3.10;;;15.00;99.90;;;;;;8314377;28;20025;-82
2023/10/08 02:24:30;;;;;;;6.75;2.88;;;15.30;99.90;;;;;;8329243;28;20104;-81
2023/10/08 02:28:33;;;;;;;7.70;3.03;;;15.40;99.90;;;;;;8328578;28;20025;-82
2023/10/08 02:32:33;;;;;;;5.00;2.92;;;15.30;99.90;;;;;;8329239;28;20025;-82
2023/10/08 02:36:37;;;;;;;5.97;2.75;;;15.50;99.90;;;;;;8336496;28;20029;-82
2023/10/08 02:40:44;;;;;;;4.78;2.90;;;15.70;99.90;;;;;;8351106;28;20083;-80
2023/10/08 02:44:45;;;;;;;6.75;3.00;;;15.70;99.90;;;;;;8337808;28;20124;-82
2023/10/08 02:48:46;;;;;;;4.70;2.75;;;15.50;99.90;;;;;;8333727;28;20029;-80
2023/10/08 02:52:47;;;;;;;5.05;2.70;;;15.50;99.90;;;;;;8317310;28;20445;-81
2023/10/08 02:56:52;;;;;;;5.57;2.50;;;15.40;99.90;;;;;;8319731;28;20033;-81
2023/10/08 03:00:53;;;;;;;5.70;3.15;;;15.30;99.90;;;;;;8335721;28;20029;-80
2023/10/08 03:04:54;;;;;;;5.45;2.83;;;15.20;99.90;;;;;;8322051;28;20037;-81
2023/10/08 03:08:55;;;;;;;6.32;3.08;;;15.40;99.90;;;;;;8351500;28;20111;-82
2023/10/08 03:12:55;;;;;;;5.85;2.88;;;15.40;99.90;;;;;;8342502;28;20034;-81
2023/10/08 03:17:07;;;;;;;5.00;2.90;;;15.50;99.90;;;;;;8317959;28;20030;-81
2023/10/08 03:21:20;;;;;;;5.68;3.00;;;15.50;99.90;;;;;;8344961;28;20517;-81
2023/10/08 03:25:20;;;;;;;5.55;2.50;;;15.70;99.90;;;;;;8328831;28;20443;-81
2023/10/08 03:29:21;;;;;;;5.25;2.70;;;15.60;99.90;;;;;;8333551;28;20013;-82
2023/10/08 03:33:23;;;;;;;5.68;2.83;;;15.60;99.90;;;;;;8356781;28;20084;-81
2023/10/08 03:37:29;;;;;;;6.00;3.00;;;15.50;99.90;;;;;;8339513;28;20040;-81
2023/10/08 03:41:30;;;;;;;5.28;2.72;;;15.40;99.90;;;;;;8316200;28;20608;-81
2023/10/08 03:49:51;;;;;;;4.63;2.72;;;15.20;99.90;;;;;;8339012;28;20124;-82
2023/10/08 03:53:58;;;;;;;4.15;2.50;;;14.70;99.90;;;;;;8355827;28;20017;-81
2023/10/08 03:58:03;;;;;;;4.82;2.53;;;14.70;99.90;;;;;;8331977;28;20590;-80
2023/10/08 04:06:21;;;;;;;5.63;2.47;;;14.60;99.90;;;;;;8325893;28;20033;-81
2023/10/08 04:11:07;;;;;;;4.00;2.38;;;14.90;99.90;;;;;;8308250;28;20484;-81
2023/10/08 04:14:43;;;;;;;5.15;2.40;;;14.80;99.90;;;;;;8310088;28;20037;-80
2023/10/08 04:18:43;;;;;;;5.90;2.55;;;14.70;99.90;;;;;;8300574;28;20076;-80
2023/10/08 04:22:44;;;;;;;6.30;2.88;;;14.90;99.90;;;;;;8325946;28;20493;-80
2023/10/08 04:26:45;;;;;;;6.90;2.67;;;14.80;99.90;;;;;;8311289;28;20064;-81
2023/10/08 04:30:48;;;;;;;4.22;2.22;;;14.60;99.90;;;;;;8314070;28;20158;-81
2023/10/08 04:34:49;;;;;;;5.45;2.95;;;14.60;99.90;;;;;;8307085;28;20053;-80
2023/10/08 04:38:54;;;;;;;4.90;2.50;;;14.80;99.90;;;;;;8326528;28;20107;-81
2023/10/08 04:42:55;;;;;;;4.75;2.30;;;14.80;99.90;;;;;;8317600;28;20444;-80
2023/10/08 04:51:02;;;;;;;5.28;2.40;;;14.80;99.90;;;;;;8355129;28;20072;-82
2023/10/08 04:55:12;;;;;;;4.45;2.53;;;14.50;99.90;;;;;;8346747;28;20032;-83
2023/10/08 04:59:13;;;;;;;5.28;2.40;;;14.40;99.90;;;;;;8357627;28;20481;-84
2023/10/08 05:03:14;;;;;;;4.40;2.35;;;14.40;99.90;;;;;;8349548;28;20064;-83
2023/10/08 05:07:20;;;;;;;4.85;2.25;;;14.40;99.90;;;;;;8346187;28;20017;-84
2023/10/08 05:24:08;;;;;;;6.00;2.70;;;14.10;99.90;;;;;;8362031;28;20032;-83
2023/10/08 05:28:09;;;;;;;7.47;2.38;;;13.80;99.90;;;;;;8363976;28;20505;-84
2023/10/08 05:36:49;;;;;;;4.97;2.38;;;13.60;99.90;;;;;;8369091;28;20079;-84
2023/10/08 05:46:18;;;;;;;5.75;2.85;;;13.50;99.90;;;;;;8373562;28;20065;-84
2023/10/08 05:53:43;;;;;;;6.18;2.92;;;13.30;99.90;;;;;;8377785;28;20490;-84
2023/10/08 05:57:51;;;;;;;6.45;2.70;;;13.00;99.90;;;;;;8362424;28;20048;-84
2023/10/08 06:02:05;;;;;;;7.57;2.72;;;12.80;99.90;;;;;;8354536;28;20120;-84
2023/10/08 06:11:00;;;;;;;6.07;2.55;;;12.60;99.90;;;;;;8373331;28;20020;-83
2023/10/08 06:15:06;;;;;;;4.82;2.55;;;12.70;99.90;;;;;;8363952;28;20047;-84
2023/10/08 06:19:09;;;;;;;3.95;2.42;;;12.60;99.90;;;;;;8348837;28;20037;-83
2023/10/08 06:23:17;;;;;;;4.80;2.25;;;12.50;99.90;;;;;;8348572;28;20035;-83
2023/10/08 06:27:17;;;;;;;6.05;2.63;;;12.40;99.90;;;;;;8371520;28;20026;-81
2023/10/08 06:31:24;;;;;;;4.60;2.83;;;12.50;99.90;;;;;;8347165;28;20108;-81
2023/10/08 06:35:25;;;;;;;4.72;2.65;;;12.30;99.90;;;;;;8366248;28;20503;-82
2023/10/08 06:39:33;;;;;;;5.10;2.28;;;12.60;99.90;;;;;;8359075;28;20037;-82
2023/10/08 06:43:36;;;;;;;5.97;3.03;;;12.60;99.90;;;;;;8360533;28;20554;-83
2023/10/08 06:47:36;;;;;;;4.53;2.38;;;12.70;99.90;;;;;;8354180;28;20447;-82
2023/10/08 06:51:44;;;;;;;5.85;3.00;;;12.70;99.90;;;;;;8348820;28;20025;-82
2023/10/08 06:55:47;;;;;;;5.38;2.55;;;12.70;99.90;;;;;;8368538;28;20020;-82
2023/10/08 06:59:50;;;;;;;5.22;2.42;;;12.90;99.90;;;;;;8353301;28;20043;-82
2023/10/08 07:03:52;;;;;;;5.55;2.78;;;13.10;99.90;;;;;;8382274;28;20488;-82
2023/10/08 07:07:53;;;;;;;4.22;2.35;;;13.40;99.90;;;;;;8367110;28;20021;-82
2023/10/08 07:11:54;;;;;;;6.20;3.40;;;13.60;99.90;;;;;;8361571;28;20031;-82
2023/10/08 07:15:56;;;;;;;8.48;4.43;;;14.00;99.90;;;;;;8375331;28;20033;-83
2023/10/08 07:19:57;;;;;;;8.85;4.20;;;14.40;99.90;;;;;;8358513;28;20021;-83
2023/10/08 07:23:59;;;;;;;7.43;4.40;;;14.60;99.90;;;;;;8352386;28;20032;-83
2023/10/08 07:28:00;;;;;;;7.80;4.65;;;14.90;99.90;;;;;;8365438;28;20116;-82
2023/10/08 07:32:09;;;;;;;6.47;3.42;;;15.20;99.90;;;;;;8365787;28;20017;-83
2023/10/08 07:36:14;;;;;;;9.70;5.27;;;15.70;99.90;;;;;;8365177;28;20288;-82
2023/10/08 07:40:15;;;;;;;6.15;3.47;;;15.80;99.90;;;;;;8361323;28;20519;-82
2023/10/08 07:44:15;;;;;;;6.70;2.88;;;16.00;99.90;;;;;;8355744;28;20029;-83
2023/10/08 07:48:16;;;;;;;6.22;3.05;;;16.20;99.90;;;;;;8344732;28;20033;-82
2023/10/08 07:52:16;;;;;;;5.30;2.70;;;16.60;99.90;;;;;;8367380;28;20478;-82
2023/10/08 07:56:17;;;;;;;5.07;2.47;;;16.60;99.90;;;;;;8360693;28;20021;-82
2023/10/08 08:00:21;;;;;;;6.20;2.40;;;17.00;99.90;;;;;;8354524;28;20115;-82
2023/10/08 08:04:22;;;;;;;7.13;2.83;;;17.30;99.90;;;;;;8352848;28;20029;-82
2023/10/08 08:08:27;;;;;;;6.13;2.38;;;17.70;99.90;;;;;;8351974;28;20139;-83
2023/10/08 08:12:28;;;;;;;5.55;2.58;;;17.70;99.90;;;;;;8345562;28;20110;-82
2023/10/08 08:16:29;;;;;;;4.82;2.60;;;17.60;99.90;;;;;;8352850;28;20063;-82
2023/10/08 08:20:38;;;;;;;5.35;2.45;;;17.60;99.90;;;;;;8349704;28;20036;-82
2023/10/08 08:24:39;;;;;;;6.30;2.72;;;17.60;99.90;;;;;;8363478;28;20017;-82
2023/10/08 08:28:41;;;;;;;5.18;2.83;;;17.60;99.90;;;;;;8354893;28;20024;-82
2023/10/08 08:32:44;;;;;;;5.25;2.80;;;17.60;99.90;;;;;;8351026;28;20017;-82
2023/10/08 08:36:46;;;;;;;5.82;2.80;;;17.60;99.90;;;;;;8366033;28;20025;-82
2023/10/08 08:40:48;;;;;;;5.13;2.30;;;17.70;99.90;;;;;;8352062;28;20025;-80
2023/10/08 08:44:51;;;;;;;6.07;2.75;;;18.10;99.90;;;;;;8341360;28;20025;-83
2023/10/08 08:48:53;;;;;;;4.00;2.42;;;18.40;99.90;;;;;;8350868;28;20053;-81
2023/10/08 08:52:54;;;;;;;7.30;2.67;;;18.80;99.90;;;;;;8355041;28;20121;-82
2023/10/08 08:56:55;;;;;;;6.40;2.90;;;18.90;99.90;;;;;;8345907;28;20033;-82
2023/10/08 09:00:56;;;;;;;5.85;2.90;;;19.20;99.90;;;;;;8351930;28;20094;-82
2023/10/08 09:04:57;;;;;;;7.15;3.08;;;19.60;99.90;;;;;;8353417;28;20029;-82
2023/10/08 09:09:13;;;;;;;5.20;3.13;;;20.00;99.90;;;;;;8354414;28;20028;-82
2023/10/08 09:13:14;;;;;;;5.93;2.67;;;20.10;99.90;;;;;;8349675;28;20064;-82
2023/10/08 09:17:17;;;;;;;4.75;2.35;;;20.20;99.90;;;;;;8341097;28;20071;-82
2023/10/08 09:21:22;;;;;;;8.90;3.00;;;20.50;99.90;;;;;;8347138;28;20025;-82
2023/10/08 09:25:24;;;;;;;5.47;2.47;;;20.70;99.90;;;;;;8352211;28;20029;-83
2023/10/08 09:29:26;;;;;;;6.07;2.90;;;20.40;99.90;;;;;;8351158;28;20059;-83
2023/10/08 09:33:28;;;;;;;4.47;2.40;;;20.20;99.90;;;;;;8354288;28;20508;-83
2023/10/08 09:37:29;;;;;;;7.00;2.90;;;20.30;99.90;;;;;;8370421;28;20021;-83
2023/10/08 09:41:30;;;;;;;5.82;2.65;;;20.30;99.90;;;;;;8367267;28;20023;-83
2023/10/08 09:45:31;;;;;;;10.07;3.17;;;20.60;99.90;;;;;;8371118;28;20032;-83
2023/10/08 09:49:38;;;;;;;7.03;3.25;;;20.70;99.90;;;;;;8364354;28;20500;-83
2023/10/08 09:53:51;;;;;;;6.00;2.78;;;21.00;99.90;;;;;;8342263;28;20508;-83
2023/10/08 09:57:55;;;;;;;6.53;3.00;;;21.40;99.90;;;;;;8379833;28;20442;-82
2023/10/08 10:01:59;;;;;;;6.00;2.63;;;21.60;99.90;;;;;;8351376;28;20033;-79
2023/10/08 10:06:00;;;;;;;7.10;2.65;;;22.40;99.90;;;;;;8356412;28;20162;-80
2023/10/08 10:10:00;;;;;;;7.10;2.60;;;22.10;99.90;;;;;;8360990;28;20044;-81
2023/10/08 10:14:03;;;;;;;10.50;3.10;;;22.70;99.90;;;;;;8359666;28;20052;-79
2023/10/08 10:18:25;;;;;;;6.28;3.08;;;23.50;99.90;;;;;;8340504;28;20028;-79
2023/10/08 10:22:34;;;;;;;8.32;2.53;;;24.10;99.90;;;;;;8348878;28;20024;-80
2023/10/08 10:26:40;;;;;;;5.20;2.50;;;24.60;99.90;;;;;;8370649;28;20191;-80
2023/10/08 10:30:41;;;;;;;8.60;2.85;;;25.30;99.90;;;;;;8339447;28;20033;-79
2023/10/08 10:34:43;;;;;;;6.85;2.70;;;25.10;99.90;;;;;;8360119;28;20013;-80
2023/10/08 10:38:45;;;;;;;4.88;2.60;;;25.00;99.90;;;;;;8343046;28;20036;-79
2023/10/08 10:42:53;;;;;;;6.95;2.60;;;24.50;99.70;;;;;;8356200;28;20519;-80
2023/10/08 10:51:17;;;;;;;10.55;2.92;;;23.70;99.90;;;;;;8325486;28;20059;-81
2023/10/08 10:55:20;;;;;;;7.00;3.03;;;23.20;99.90;;;;;;8305819;28;20505;-81
2023/10/08 10:59:27;;;;;;;6.90;2.85;;;22.60;99.90;;;;;;8283528;28;20114;-79
2023/10/08 11:03:29;;;;;;;6.75;3.05;;;22.40;99.90;;;;;;8281297;28;20026;-80
2023/10/08 11:07:33;;;;;;;6.70;2.50;;;21.90;99.90;;;;;;8271723;28;20061;-80
2023/10/08 11:11:36;;;;;;;11.75;3.20;;;21.70;99.90;;;;;;8285585;28;20022;-79
2023/10/08 11:15:40;;;;;;;7.97;2.80;;;21.40;99.90;;;;;;8285529;28;20586;-80
2023/10/08 11:19:42;;;;;;;7.13;2.78;;;21.40;99.90;;;;;;8285342;28;20035;-79
2023/10/08 11:23:52;;;;;;;6.10;2.70;;;21.20;99.90;;;;;;8285616;28;20029;-79
2023/10/08 11:28:01;;;;;;;7.70;2.70;;;21.00;99.90;;;;;;8281791;28;20030;-79
2023/10/08 11:32:02;;;;;;;5.45;2.55;;;20.90;99.90;;;;;;8278157;28;20022;-79
2023/10/08 11:36:18;;;;;;;5.93;2.83;;;21.00;99.90;;;;;;8285596;28;20076;-79
2023/10/08 11:40:28;;;;;;;6.45;2.97;;;21.10;99.90;;;;;;8278097;28;20034;-80
2023/10/08 11:44:35;;;;;;;;;;;21.10;99.90;;;;;;8291600;28;20116;-80
2023/10/08 11:48:38;;;;;;;30.08;15.02;;;21.20;99.90;;;;;;8288772;28;19916;-80
2023/10/08 11:52:41;;;;;;;45.92;23.65;;;21.30;99.90;;;;;;8281544;28;20017;-80
2023/10/08 11:56:42;;;;;;;33.47;17.70;;;21.50;99.90;;;;;;8280917;28;20021;-80
2023/10/08 12:00:52;;;;;;;6.60;3.55;;;21.50;99.90;;;;;;8280750;28;20445;-80
2023/10/08 12:04:52;;;;;;;20.13;11.33;;;21.50;99.90;;;;;;8280315;28;20033;-80
2023/10/08 12:08:58;;;;;;;7.13;2.90;;;21.50;99.90;;;;;;8280694;28;20042;-80
2023/10/08 12:12:59;;;;;;;4.85;2.70;;;21.70;99.90;;;;;;8288416;28;20025;-80
2023/10/08 12:17:00;;;;;;;5.40;2.60;;;22.00;99.90;;;;;;8280205;28;20109;-80
2023/10/08 12:21:01;;;;;;;4.35;2.35;;;22.20;99.90;;;;;;8295166;28;20270;-79
2023/10/08 12:25:02;;;;;;;7.63;2.55;;;22.50;99.90;;;;;;8286417;28;20040;-79
2023/10/08 12:29:08;;;;;;;6.03;2.88;;;22.70;99.90;;;;;;8282074;28;20037;-79
2023/10/08 12:33:12;;;;;;;7.55;2.72;;;22.60;99.90;;;;;;8296028;28;20018;-79
2023/10/08 12:37:14;;;;;;;7.07;2.70;;;22.50;99.90;;;;;;8278330;28;20018;-80
2023/10/08 12:41:18;;;;;;;5.07;2.47;;;22.40;99.90;;;;;;8268419;28;20028;-79
2023/10/08 12:45:22;;;;;;;7.78;2.85;;;22.50;99.90;;;;;;8289606;28;20289;-79
2023/10/08 12:49:22;;;;;;;7.95;2.80;;;22.50;99.90;;;;;;8289998;28;20064;-80
2023/10/08 12:53:27;;;;;;;9.50;3.00;;;22.40;99.90;;;;;;8288942;28;20379;-79
2023/10/08 12:57:32;;;;;;;10.52;3.45;;;22.20;99.90;;;;;;8271064;28;20026;-79
2023/10/08 13:01:35;;;;;;;6.85;3.03;;;22.10;99.90;;;;;;8284926;28;20040;-79
2023/10/08 13:05:36;;;;;;;6.82;2.92;;;22.10;99.90;;;;;;8290868;28;20062;-79
2023/10/08 13:09:37;;;;;;;4.20;2.53;;;22.20;99.90;;;;;;8277761;28;20073;-79
2023/10/08 13:13:37;;;;;;;7.07;3.00;;;22.40;99.90;;;;;;8280085;28;20033;-80
2023/10/08 13:17:42;;;;;;;6.05;2.88;;;22.60;99.90;;;;;;8276158;28;20030;-79
2023/10/08 13:21:43;;;;;;;7.68;2.75;;;22.70;99.90;;;;;;8273294;28;20533;-80
2023/10/08 13:25:46;;;;;;;9.52;2.58;;;22.80;99.90;;;;;;8277174;28;20018;-80
2023/10/08 13:29:46;;;;;;;11.23;3.20;;;22.40;99.90;;;;;;8290805;28;20379;-79
2023/10/08 13:33:48;;;;;;;7.60;2.75;;;22.20;99.90;;;;;;8271480;28;20025;-79
2023/10/08 13:37:49;;;;;;;7.60;2.85;;;22.10;99.90;;;;;;8272792;28;20418;-79
2023/10/08 13:41:51;;;;;;;7.10;2.83;;;21.90;99.90;;;;;;8275201;28;20030;-79
2023/10/08 13:45:53;;;;;;;5.72;2.80;;;21.90;99.90;;;;;;8292536;28;20552;-79
2023/10/08 13:49:54;;;;;;;8.73;2.75;;;21.90;99.90;;;;;;8288511;28;20406;-79
2023/10/08 13:54:02;;;;;;;6.40;2.58;;;21.90;99.90;;;;;;8290026;28;20188;-79
2023/10/08 13:58:03;;;;;;;6.03;2.20;;;21.90;99.90;;;;;;8297401;28;20030;-79
2023/10/08 14:02:14;;;;;;;6.57;2.67;;;21.80;99.90;;;;;;8286144;28;20171;-79
2023/10/08 14:06:17;;;;;;;;;;;21.90;99.90;;;;;;8284963;28;20202;-80
2023/10/08 14:10:29;;;;;;;6.40;2.53;;;22.00;99.90;;;;;;8296089;28;19932;-79
2023/10/08 14:14:29;;;;;;;6.80;2.75;;;22.00;99.90;;;;;;8282695;28;20049;-79
2023/10/08 14:18:40;;;;;;;6.75;2.30;;;22.10;99.90;;;;;;8290980;28;20088;-79
2023/10/08 14:22:41;;;;;;;6.20;2.65;;;22.30;99.90;;;;;;8269846;28;20038;-80
2023/10/08 14:26:43;;;;;;;8.63;2.85;;;22.40;99.90;;;;;;8278128;28;20387;-79
2023/10/08 14:30:43;;;;;;;7.65;2.65;;;22.30;99.90;;;;;;8277861;28;20041;-80
2023/10/08 14:43:11;;;;;;;9.30;3.13;;;22.60;99.90;;;;;;8290955;28;20037;-79
2023/10/08 14:47:12;;;;;;;8.68;3.13;;;23.00;99.90;;;;;;8288155;28;20528;-79
2023/10/08 14:51:19;;;;;;;10.27;2.95;;;23.20;99.90;;;;;;8271913;28;21851;-79
2023/10/08 14:55:21;;;;;;;9.45;2.60;;;23.50;99.90;;;;;;8288513;28;20030;-78
2023/10/08 14:59:23;;;;;;;8.18;2.17;;;23.80;99.90;;;;;;8289258;28;20486;-81
2023/10/08 15:03:24;;;;;;;10.95;2.97;;;23.70;99.90;;;;;;8289309;28;20022;-81
2023/10/08 15:07:24;;;;;;;9.65;2.65;;;23.40;99.90;;;;;;8285532;28;20029;-80
2023/10/08 15:11:30;;;;;;;7.50;2.75;;;23.00;99.90;;;;;;8285846;28;20022;-80
2023/10/08 15:15:34;;;;;;;10.80;2.95;;;22.90;99.90;;;;;;8273126;28;20029;-80
2023/10/08 15:19:35;;;;;;;9.85;2.80;;;22.80;99.90;;;;;;8290706;28;20030;-79
2023/10/08 15:23:37;;;;;;;7.32;2.53;;;22.70;99.90;;;;;;8287208;28;20025;-80
2023/10/08 15:27:40;;;;;;;10.05;2.80;;;22.70;99.90;;;;;;8292783;28;20038;-81
2023/10/08 15:31:40;;;;;;;13.23;2.85;;;22.20;99.90;;;;;;8276024;28;20395;-80
2023/10/08 15:35:41;;;;;;;5.53;3.05;;;21.90;99.90;;;;;;8277083;28;20026;-79
2023/10/08 15:39:41;;;;;;;12.70;3.33;;;21.50;99.90;;;;;;8295803;28;20030;-80
2023/10/08 15:43:44;;;;;;;7.75;3.00;;;21.30;99.90;;;;;;8278965;28;20026;-81
2023/10/08 15:47:45;;;;;;;10.65;3.10;;;21.00;99.90;;;;;;8295089;28;20120;-81
2023/10/08 15:51:46;;;;;;;18.38;7.57;;;20.80;99.90;;;;;;8296128;28;20079;-80
2023/10/08 15:55:47;;;;;;;10.25;2.92;;;20.60;99.90;;;;;;8283882;28;20018;-80
2023/10/08 15:59:49;;;;;;;7.70;2.75;;;20.40;99.90;;;;;;8285021;28;20537;-81
2023/10/08 16:03:50;;;;;;;11.63;2.88;;;20.30;99.90;;;;;;8275769;28;20061;-79
2023/10/08 16:07:52;;;;;;;13.85;3.65;;;20.20;99.90;;;;;;8294040;28;20292;-80
2023/10/08 16:11:52;;;;;;;7.70;3.00;;;20.10;99.90;;;;;;8288514;28;20111;-81
2023/10/08 16:15:53;;;;;;;7.55;2.63;;;20.00;99.90;;;;;;8296190;28;20496;-81
2023/10/08 16:19:53;;;;;;;10.00;2.83;;;19.80;99.90;;;;;;8286458;28;20033;-80
2023/10/08 16:23:56;;;;;;;7.35;2.53;;;19.60;99.90;;;;;;8295060;28;20631;-79
2023/10/08 16:27:57;;;;;;;8.00;3.05;;;19.50;99.90;;;;;;8295947;28;20084;-80
2023/10/08 16:31:58;;;;;;;9.38;3.10;;;19.30;99.90;;;;;;8294934;28;20115;-79
2023/10/08 16:36:00;;;;;;;9.77;3.10;;;19.40;99.90;;;;;;8288821;28;20033;-80
2023/10/08 16:40:00;;;;;;;11.95;3.45;;;19.00;99.90;;;;;;8290572;28;20038;-79
2023/10/08 16:44:01;;;;;;;8.57;3.08;;;18.90;99.90;;;;;;8279815;28;20426;-80
2023/10/08 16:48:01;;;;;;;11.30;4.40;;;18.70;99.90;;;;;;8276750;28;20033;-79
2023/10/08 16:52:03;;;;;;;9.55;3.15;;;18.40;99.90;;;;;;8281835;28;20030;-79
2023/10/08 16:56:06;;;;;;;11.93;3.00;;;18.10;99.90;;;;;;8292605;28;20036;-79
2023/10/08 17:00:10;;;;;;;10.88;3.75;;;17.90;99.90;;;;;;8290316;28;20026;-79
2023/10/08 17:04:12;;;;;;;11.43;3.53;;;17.60;99.90;;;;;;8279722;28;20084;-79
2023/10/08 17:08:12;;;;;;;13.88;3.20;;;17.50;99.90;;;;;;8290921;28;20110;-79
2023/10/08 17:12:17;;;;;;;8.55;2.88;;;17.50;99.90;;;;;;8289270;28;22009;-79
2023/10/08 17:16:18;;;;;;;9.40;2.95;;;17.40;99.90;;;;;;8288164;28;20141;-80
2023/10/08 17:20:22;;;;;;;7.03;2.97;;;17.30;99.90;;;;;;8278624;28;20415;-79
2023/10/08 17:24:23;;;;;;;10.77;3.50;;;17.00;99.90;;;;;;8271472;28;20431;-79
2023/10/08 17:28:25;;;;;;;7.45;2.90;;;16.80;99.90;;;;;;8274069;28;20022;-79
2023/10/08 17:32:26;;;;;;;8.70;3.35;;;16.70;99.90;;;;;;8278731;28;20030;-79
2023/10/08 17:36:27;;;;;;;9.55;3.38;;;16.60;99.90;;;;;;8290057;28;20026;-79
2023/10/08 17:40:28;;;;;;;8.93;3.67;;;16.70;99.90;;;;;;8291012;28;20030;-80
2023/10/08 17:44:30;;;;;;;7.30;3.72;;;16.70;99.90;;;;;;8284218;28;20490;-79
2023/10/08 17:48:35;;;;;;;13.85;4.18;;;16.50;99.90;;;;;;8279990;28;20030;-80
2023/10/08 17:52:36;;;;;;;8.63;4.03;;;16.50;99.90;;;;;;8276857;28;20425;-79
2023/10/08 17:56:38;;;;;;;11.25;4.38;;;16.40;99.90;;;;;;8276888;28;20014;-79
2023/10/08 18:00:42;;;;;;;10.30;3.88;;;16.40;99.90;;;;;;8295022;28;20108;-80
2023/10/08 18:04:42;;;;;;;9.55;4.00;;;16.40;99.90;;;;;;8286197;28;20034;-79
2023/10/08 18:08:44;;;;;;;12.77;4.78;;;16.30;99.90;;;;;;8279524;28;20048;-80
2023/10/08 18:12:45;;;;;;;12.90;5.00;;;16.30;99.90;;;;;;8280910;28;20407;-79
2023/10/08 18:16:46;;;;;;;13.90;5.22;;;16.20;99.90;;;;;;8287004;28;20022;-79
2023/10/08 18:20:49;;;;;;;13.82;4.93;;;16.00;99.90;;;;;;8288649;28;20041;-79
2023/10/08 18:24:50;;;;;;;13.13;5.00;;;15.80;99.90;;;;;;8287307;28;20026;-78
2023/10/08 18:28:54;;;;;;;12.82;4.18;;;15.50;99.90;;;;;;8284616;28;20049;-80
2023/10/08 18:32:54;;;;;;;11.98;4.30;;;15.30;99.90;;;;;;8294808;28;20037;-80
2023/10/08 18:36:55;;;;;;;15.40;4.30;;;15.10;99.90;;;;;;8276495;28;20683;-80
2023/10/08 18:40:56;;;;;;;11.57;4.07;;;14.90;99.90;;;;;;8277935;28;20590;-78
2023/10/08 18:45:00;;;;;;;12.05;3.72;;;14.80;99.90;;;;;;8286033;28;20069;-78
2023/10/08 18:49:00;;;;;;;8.93;3.88;;;14.60;99.90;;;;;;8281528;28;20038;-79
2023/10/08 18:53:02;;;;;;;14.43;4.93;;;14.50;99.90;;;;;;8286514;28;20021;-80
2023/10/08 18:57:05;;;;;;;8.38;4.82;;;14.40;99.90;;;;;;8290057;28;20025;-80
2023/10/08 19:01:07;;;;;;;11.80;4.57;;;14.50;99.90;;;;;;8299315;28;20061;-80
2023/10/08 19:05:08;;;;;;;9.15;4.05;;;14.50;99.90;;;;;;8284167;28;20030;-80
2023/10/08 19:09:11;;;;;;;8.88;3.60;;;14.50;99.90;;;;;;8288106;28;20033;-80
2023/10/08 19:13:12;;;;;;;11.07;3.90;;;14.30;99.90;;;;;;8283143;28;20021;-80
2023/10/08 19:17:14;;;;;;;10.68;4.20;;;14.20;99.90;;;;;;8296128;28;20033;-80
2023/10/08 19:21:18;;;;;;;11.95;3.90;;;14.00;99.90;;;;;;8290783;28;20022;-81
2023/10/08 19:25:19;;;;;;;12.55;4.50;;;13.90;99.90;;;;;;8291282;28;20133;-78
2023/10/08 19:29:24;;;;;;;12.05;3.47;;;13.80;99.90;;;;;;8300086;28;20113;-80
2023/10/08 19:33:25;;;;;;;9.13;3.60;;;13.60;99.90;;;;;;8279874;28;20022;-80
2023/10/08 19:37:25;;;;;;;10.70;3.90;;;13.50;99.90;;;;;;8283123;28;20125;-80
2023/10/08 19:41:27;;;;;;;10.75;3.65;;;13.30;99.90;;;;;;8297416;28;20036;-80
2023/10/08 19:45:32;;;;;;;9.18;3.60;;;13.40;99.90;;;;;;8292279;28;20045;-80
2023/10/08 19:49:33;;;;;;;10.95;4.22;;;13.20;99.90;;;;;;8280838;28;20115;-81
2023/10/08 19:53:34;;;;;;;11.77;3.67;;;13.10;99.90;;;;;;8296550;28;20019;-80
2023/10/08 19:57:42;;;;;;;9.57;3.60;;;13.10;99.90;;;;;;8292684;28;20032;-80
2023/10/08 20:01:42;;;;;;;6.95;2.95;;;13.10;99.90;;;;;;8281943;28;20033;-81
2023/10/08 20:05:43;;;;;;;9.48;4.07;;;13.00;99.90;;;;;;8283643;28;20033;-80
2023/10/08 20:09:45;;;;;;;8.73;3.30;;;12.90;99.90;;;;;;8281847;28;20033;-78
2023/10/08 20:13:47;;;;;;;10.55;3.85;;;12.80;99.90;;;;;;8290653;28;20176;-79
2023/10/08 20:17:49;;;;;;;10.30;4.03;;;12.80;99.90;;;;;;8289337;28;20082;-81
2023/10/08 20:21:49;;;;;;;8.02;3.53;;;12.80;99.90;;;;;;8299436;28;20026;-81
2023/10/08 20:25:51;;;;;;;9.43;4.20;;;12.70;99.90;;;;;;8298164;28;20053;-80
2023/10/08 20:29:51;;;;;;;9.40;4.13;;;12.60;99.90;;;;;;8280395;28;20041;-80
2023/10/08 20:33:53;;;;;;;8.10;4.53;;;12.60;99.90;;;;;;8287365;28;20064;-79
2023/10/08 20:37:55;;;;;;;17.50;5.10;;;12.60;99.90;;;;;;8285273;28;20026;-81
2023/10/08 20:41:55;;;;;;;11.68;4.65;;;12.50;99.90;;;;;;8279331;28;20033;-81
2023/10/08 20:45:56;;;;;;;11.02;5.38;;;12.40;99.90;;;;;;8285711;28;20402;-81
2023/10/08 20:49:56;;;;;;;13.88;5.38;;;12.40;99.90;;;;;;8298681;28;20037;-79
2023/10/08 20:53:57;;;;;;;9.80;5.20;;;12.30;99.90;;;;;;8278067;28;20030;-80
2023/10/08 20:57:58;;;;;;;9.30;4.43;;;12.20;99.90;;;;;;8294110;28;20513;-79
2023/10/08 21:01:58;;;;;;;10.57;4.38;;;12.10;99.90;;;;;;8286057;28;20022;-77
2023/10/08 21:06:01;;;;;;;14.07;4.07;;;12.00;99.90;;;;;;8300662;28;20025;-79
2023/10/08 21:10:02;;;;;;;11.38;4.28;;;12.00;99.90;;;;;;8286396;28;20518;-80
2023/10/08 21:14:02;;;;;;;12.25;4.18;;;12.00;99.90;;;;;;8288391;28;20022;-80
2023/10/08 21:18:09;;;;;;;17.70;4.60;;;11.90;99.90;;;;;;8291455;28;20057;-78
2023/10/08 21:22:10;;;;;;;9.10;4.00;;;12.10;99.90;;;;;;8300961;28;20026;-80
2023/10/08 21:26:17;;;;;;;10.23;3.63;;;12.10;99.90;;;;;;8299156;28;20486;-80
2023/10/08 21:30:19;;;;;;;11.75;4.13;;;11.90;99.90;;;;;;8286990;28;20113;-79
2023/10/08 21:34:20;;;;;;;7.03;3.42;;;11.70;99.90;;;;;;8297559;28;20096;-79
2023/10/08 21:38:23;;;;;;;8.80;3.65;;;11.50;99.90;;;;;;8282939;28;20029;-77
2023/10/08 21:42:23;;;;;;;10.68;4.10;;;11.40;99.90;;;;;;8283927;28;20045;-80
2023/10/08 21:46:24;;;;;;;7.88;4.13;;;11.20;99.90;;;;;;8291208;28;20572;-78
2023/10/08 21:50:25;;;;;;;8.60;3.92;;;11.20;99.90;;;;;;8284491;28;20029;-79
2023/10/08 21:54:26;;;;;;;9.93;4.07;;;11.10;99.90;;;;;;8289070;28;20105;-78
2023/10/08 21:58:26;;;;;;;9.02;4.05;;;11.10;99.90;;;;;;8291206;28;20060;-79
2023/10/08 22:02:42;;;;;;;8.35;3.58;;;11.10;99.90;;;;;;8281225;28;20146;-80